Orlando, Florida
Traffic Map
Current Weather Conditions
Orlando, Florida
Clear
Clear
75°
Feels Like: 75°
Wind Chill: 75° Ceiling: Unl
Heat Index: 75° Visibility: 10mi
Dew Point: 75° Wind: 0mph
Humidity: 100% Direction: ° ()
Pressure: 30.09in Gusts: 0mph
Raw Report DataKORL 151053Z 00000KT 10SM CLR 24/24 A3009 RMK AO2 SLP190 T02390239 $
Traffic Incident Summary
Active as of:
Severity:
Category:
InformationThere was an issue retrieving the traffic information for this location. Please try a different location or try again shortly.
Advertisements